Forest, Virginia
Current Conditions -  °F | °C
As of 6:54 AM on Sunday 25 Jan 2015 (Local Time) from KLYH Reporting Station
Clear Clear  
Wind Chill: 34°   Ceiling: Unl
Heat Index: 34°   Visibility: 10mi
Dew Point: 26°   Wind: 3mph
Humidity: 73%   Direction: 230°SW
Pressure: 29.87"   Gusts: NA
Location:  37.36°N, 79.29°W
Report Text: KLYH 251154Z 23003KT 10SM CLR 01/M03 A2987 RMK AO2 SLP120 70001 T00111033 10033 20006 53013
Loading
Personal Weather Stations






























Interactive Weather Map New forecast layout! Learn more

10-Day Weather Forecast

Advertisements
Track Severe Weather on mobile